Time;durP1;ratioP1;P1;durP2;ratioP2;P2;SDS_P1;SDS_P2;PMS_P1;PMS_P2;Temp;Humidity;BMP_temperature;BMP_pressure;BME280_temperature;BME280_humidity;BME280_pressure;Samples;Min_cycle;Max_cycle;Signal;HPM_P1;HPM_P2
2023/06/07 00:01:17;;;;;;;1999.90;999.90;;;;;;;14.66;100.00;95347.25;5066007;28;20197;-58
2023/06/07 00:03:44;;;;;;;1999.90;999.90;;;;;;;14.64;100.00;95348.88;5065724;28;20212;-58
2023/06/07 00:06:10;;;;;;;1999.90;999.90;;;;;;;14.61;100.00;95342.25;5049332;28;20276;-58
2023/06/07 00:08:36;;;;;;;1999.90;999.90;;;;;;;14.59;100.00;95339.16;5049361;28;20189;-57
2023/06/07 00:11:02;;;;;;;1999.90;999.90;;;;;;;14.54;100.00;95338.91;5049294;28;20213;-58
2023/06/07 00:13:27;;;;;;;1999.90;999.90;;;;;;;14.52;100.00;95339.34;5065992;28;20213;-58
2023/06/07 00:15:52;;;;;;;1999.90;999.90;;;;;;;14.53;100.00;95332.63;5065978;28;20170;-58
2023/06/07 00:18:19;;;;;;;1999.90;999.90;;;;;;;14.53;100.00;95329.88;5065290;28;20190;-57
2023/06/07 00:20:45;;;;;;;1999.90;999.90;;;;;;;14.46;100.00;95327.31;5065962;28;20194;-58
2023/06/07 00:23:14;;;;;;;1999.90;999.90;;;;;;;14.42;100.00;95321.13;5049262;28;20194;-57
2023/06/07 00:25:40;;;;;;;1999.90;999.90;;;;;;;14.37;100.00;95327.16;5048908;28;20236;-57
2023/06/07 00:28:05;;;;;;;1999.90;999.90;;;;;;;14.31;100.00;95320.59;5065179;28;20268;-57
2023/06/07 00:30:31;;;;;;;1999.90;999.90;;;;;;;14.27;100.00;95319.91;5049011;28;20260;-57
2023/06/07 00:32:56;;;;;;;1999.90;999.90;;;;;;;14.21;100.00;95316.13;5048549;28;20222;-57
2023/06/07 00:35:22;;;;;;;1999.90;999.90;;;;;;;14.16;100.00;95324.84;5065283;28;20193;-57
2023/06/07 00:37:47;;;;;;;1999.90;999.90;;;;;;;14.13;100.00;95311.97;5049060;28;20197;-58
2023/06/07 00:40:12;;;;;;;1999.90;999.90;;;;;;;14.13;100.00;95306.47;5048729;28;20223;-57
2023/06/07 00:42:38;;;;;;;1999.90;999.90;;;;;;;14.11;100.00;95306.16;5065305;28;20193;-58
2023/06/07 00:45:03;;;;;;;1999.90;999.90;;;;;;;14.05;100.00;95302.34;5065128;28;20170;-57
2023/06/07 00:47:29;;;;;;;1999.90;999.90;;;;;;;14.00;100.00;95300.13;5065580;28;20197;-56
2023/06/07 00:49:55;;;;;;;1999.90;999.90;;;;;;;13.98;100.00;95302.53;5065206;28;20193;-57
2023/06/07 00:52:21;;;;;;;1999.90;999.90;;;;;;;13.99;100.00;95304.06;5065289;28;20251;-57
2023/06/07 00:54:47;;;;;;;1999.90;999.90;;;;;;;13.98;100.00;95302.53;5065258;28;20224;-57
2023/06/07 00:57:15;;;;;;;1999.90;999.90;;;;;;;13.97;100.00;95294.72;5064859;28;20198;-57
2023/06/07 00:59:41;;;;;;;1999.90;999.90;;;;;;;13.92;100.00;95293.25;5065115;28;20206;-57
2023/06/07 01:02:07;;;;;;;1999.90;999.90;;;;;;;13.86;100.00;95288.69;5048000;28;20221;-57
2023/06/07 01:04:34;;;;;;;1999.90;999.90;;;;;;;13.81;100.00;95284.50;5048005;28;20229;-57
2023/06/07 01:07:02;;;;;;;1999.90;999.90;;;;;;;13.75;100.00;95283.44;5048013;28;20201;-57
2023/06/07 01:09:29;;;;;;;1999.90;999.90;;;;;;;13.73;100.00;95285.81;5048050;28;20194;-58
2023/06/07 01:11:56;;;;;;;1999.90;999.90;;;;;;;13.71;100.00;95284.72;5048315;28;20197;-57
2023/06/07 01:14:23;;;;;;;1999.90;999.90;;;;;;;13.66;100.00;95275.00;5065001;28;20272;-58
2023/06/07 01:16:51;;;;;;;1999.90;999.90;;;;;;;13.61;100.00;95275.50;5064862;28;20193;-57
2023/06/07 01:19:29;;;;;;;1999.90;999.90;;;;;;;13.58;100.00;95278.34;5064887;28;20194;-57
2023/06/07 01:22:06;;;;;;;1999.90;999.90;;;;;;;13.56;100.00;95278.78;5064785;28;20193;-57
2023/06/07 01:24:35;;;;;;;1999.90;999.90;;;;;;;13.54;100.00;95278.41;5064400;28;20193;-58
2023/06/07 01:27:02;;;;;;;1999.90;999.90;;;;;;;13.52;100.00;95275.34;5064168;28;20263;-57
2023/06/07 01:29:30;;;;;;;1999.90;999.90;;;;;;;13.49;100.00;95270.69;5064424;28;20269;-58
2023/06/07 01:31:57;;;;;;;1999.90;999.90;;;;;;;13.46;100.00;95277.03;5064118;28;20239;-56
2023/06/07 01:34:23;;;;;;;1999.90;999.90;;;;;;;13.45;100.00;95277.44;5064204;28;20281;-58
2023/06/07 01:36:49;;;;;;;1999.90;999.90;;;;;;;13.39;100.00;95277.16;5064485;28;20170;-56
2023/06/07 01:39:18;;;;;;;1999.90;999.90;;;;;;;13.34;100.00;95264.72;5064582;28;20193;-57
2023/06/07 01:41:44;;;;;;;1999.90;999.90;;;;;;;13.30;100.00;95266.75;5063949;28;20194;-57
2023/06/07 01:44:12;;;;;;;1999.90;999.90;;;;;;;13.30;100.00;95260.53;5064013;28;20193;-57
2023/06/07 01:46:38;;;;;;;1999.90;999.90;;;;;;;13.37;100.00;95248.63;5064033;28;20197;-57
2023/06/07 01:49:03;;;;;;;1999.90;999.90;;;;;;;13.35;100.00;95260.00;5063905;28;20201;-56
2023/06/07 01:51:29;;;;;;;1999.90;999.90;;;;;;;13.33;100.00;95257.69;5047185;28;20204;-57
2023/06/07 01:53:55;;;;;;;1999.90;999.90;;;;;;;13.30;100.00;95249.56;5064210;28;20202;-56
2023/06/07 01:56:45;;;;;;;1999.90;999.90;;;;;;;13.28;100.00;95251.94;5047292;28;20189;-57
2023/06/07 01:59:27;;;;;;;1999.90;999.90;;;;;;;13.18;100.00;95240.00;5047770;28;20270;-57
2023/06/07 02:02:16;;;;;;;1999.90;999.90;;;;;;;13.18;100.00;95236.47;5047637;28;20198;-56
2023/06/07 02:04:45;;;;;;;1999.90;999.90;;;;;;;13.15;100.00;95234.59;5036622;28;20231;-57
2023/06/07 02:07:17;;;;;;;1999.90;999.90;;;;;;;13.10;100.00;95232.31;5063969;28;20276;-58
2023/06/07 02:09:45;;;;;;;1999.90;999.90;;;;;;;13.09;100.00;95225.31;5064170;28;20309;-58
2023/06/07 02:12:11;;;;;;;1999.90;999.90;;;;;;;13.09;100.00;95223.34;5064023;28;20205;-56
2023/06/07 02:14:37;;;;;;;1999.90;999.90;;;;;;;13.13;100.00;95209.56;5063633;28;20209;-57
2023/06/07 02:17:08;;;;;;;1999.90;999.90;;;;;;;13.18;100.00;95206.31;5047130;28;20205;-57
2023/06/07 02:19:34;;;;;;;1999.90;999.90;;;;;;;13.17;100.00;95215.72;5063479;28;20182;-57
2023/06/07 02:22:00;;;;;;;1999.90;999.90;;;;;;;13.10;100.00;95215.88;5063999;28;20204;-57
2023/06/07 02:24:27;;;;;;;1999.90;999.90;;;;;;;13.05;100.00;95219.13;5063949;28;20265;-57
2023/06/07 02:26:53;;;;;;;1999.90;999.90;;;;;;;13.00;100.00;95222.34;5064039;28;20203;-58
2023/06/07 02:29:20;;;;;;;1999.90;999.90;;;;;;;12.96;100.00;95208.69;5046653;28;20197;-57
2023/06/07 02:31:54;;;;;;;1999.90;999.90;;;;;;;12.93;100.00;95197.81;5063562;28;20311;-58
2023/06/07 02:34:19;;;;;;;1999.90;999.90;;;;;;;12.88;100.00;95182.63;5063468;28;20236;-57
2023/06/07 02:36:46;;;;;;;1999.90;999.90;;;;;;;12.88;100.00;95185.38;5046724;28;20217;-58
2023/06/07 02:39:11;;;;;;;1999.90;999.90;;;;;;;12.86;100.00;95173.28;5063241;28;20259;-58
2023/06/07 02:41:36;;;;;;;1999.90;999.90;;;;;;;12.81;100.00;95171.81;5063854;28;20193;-57
2023/06/07 02:44:02;;;;;;;1999.90;999.90;;;;;;;12.77;100.00;95164.84;5063382;28;20216;-57
2023/06/07 02:46:27;;;;;;;1999.90;999.90;;;;;;;12.73;100.00;95153.19;5067338;28;20194;-57
2023/06/07 02:48:52;;;;;;;1999.90;999.90;;;;;;;12.67;100.00;95150.16;5067147;28;20173;-58
2023/06/07 02:51:18;;;;;;;1999.90;999.90;;;;;;;12.64;100.00;95153.75;5067645;28;20201;-57
2023/06/07 02:53:45;;;;;;;1999.90;999.90;;;;;;;12.60;100.00;95155.00;5050656;28;20209;-58
2023/06/07 02:56:11;;;;;;;1999.90;999.90;;;;;;;12.58;100.00;95154.66;5067357;28;20197;-58
2023/06/07 02:58:36;;;;;;;1999.90;999.90;;;;;;;12.56;100.00;95154.31;5066946;28;20193;-57
2023/06/07 03:01:07;;;;;;;1999.90;999.90;;;;;;;12.54;100.00;95156.72;5067592;28;20197;-57
2023/06/07 03:03:36;;;;;;;1999.90;999.90;;;;;;;12.53;100.00;95160.66;5050586;28;20247;-57
2023/06/07 03:06:04;;;;;;;1999.90;999.90;;;;;;;12.51;100.00;95157.53;5067030;28;20190;-56
2023/06/07 03:08:29;;;;;;;1999.90;999.90;;;;;;;12.49;100.00;95168.13;5067328;28;20467;-57
2023/06/07 03:10:55;;;;;;;1999.90;999.90;;;;;;;12.44;100.00;95160.41;5050257;28;20190;-57
2023/06/07 03:13:20;;;;;;;1999.90;999.90;;;;;;;12.38;100.00;95164.81;5050318;28;20206;-57
2023/06/07 03:15:46;;;;;;;1999.90;999.90;;;;;;;12.32;100.00;95161.03;5067247;28;20196;-57
2023/06/07 03:18:15;;;;;;;1999.90;999.90;;;;;;;12.25;100.00;95161.19;5067264;28;20211;-57
2023/06/07 03:20:44;;;;;;;1999.90;999.90;;;;;;;12.20;100.00;95147.97;5067175;28;20189;-57
2023/06/07 03:23:09;;;;;;;1999.90;999.90;;;;;;;12.16;100.00;95142.56;5050222;28;20200;-57
2023/06/07 03:25:35;;;;;;;1999.90;999.90;;;;;;;12.13;100.00;95128.94;5067360;28;20221;-57
2023/06/07 03:28:01;;;;;;;1999.90;999.90;;;;;;;12.18;100.00;95133.94;5066431;28;20204;-57
2023/06/07 03:30:26;;;;;;;1999.90;999.90;;;;;;;12.24;100.00;95118.56;5066611;28;20246;-58
2023/06/07 03:32:52;;;;;;;1999.90;999.90;;;;;;;12.32;100.00;95106.28;5066730;28;20214;-57
2023/06/07 03:35:18;;;;;;;1999.90;999.90;;;;;;;12.44;100.00;95105.66;5049998;28;20228;-57
2023/06/07 03:37:43;;;;;;;1999.90;999.90;;;;;;;12.58;100.00;95083.44;5049728;28;20273;-57
2023/06/07 03:40:09;;;;;;;1999.90;999.90;;;;;;;12.73;100.00;95082.72;5066497;28;20193;-57
2023/06/07 03:42:35;;;;;;;1999.90;999.90;;;;;;;12.87;100.00;95092.59;5066227;28;20194;-57
2023/06/07 03:45:00;;;;;;;1999.90;999.90;;;;;;;13.05;100.00;95098.50;5066590;28;20197;-58
2023/06/07 03:47:25;;;;;;;1999.90;999.90;;;;;;;13.25;100.00;95112.91;5050105;28;20166;-58
2023/06/07 03:49:51;;;;;;;1999.90;999.90;;;;;;;13.44;100.00;95128.53;5066507;28;20190;-56
2023/06/07 03:52:16;;;;;;;1999.90;999.90;;;;;;;13.66;100.00;95148.00;5066019;28;20193;-57
2023/06/07 03:54:41;;;;;;;1999.90;999.90;;;;;;;13.86;100.00;95174.16;5049350;28;20198;-57
2023/06/07 03:57:07;;;;;;;1999.90;999.90;;;;;;;14.06;100.00;95204.28;5066019;28;20213;-56
2023/06/07 03:59:32;;;;;;;1999.90;999.90;;;;;;;14.25;100.00;95233.66;5066188;28;20235;-57
2023/06/07 04:01:58;;;;;;;1999.90;999.90;;;;;;;14.40;100.00;95252.09;5066500;28;20194;-57
2023/06/07 04:04:27;;;;;;;1999.90;999.90;;;;;;;14.67;100.00;95271.81;5065850;28;20200;-57
2023/06/07 04:06:53;;;;;;;1999.90;999.90;;;;;;;14.89;100.00;95283.78;5065949;28;20209;-58
2023/06/07 04:09:19;;;;;;;1999.90;999.90;;;;;;;14.95;100.00;95304.06;5065793;28;20186;-57
2023/06/07 04:11:45;;;;;;;1999.90;999.90;;;;;;;15.10;100.00;95319.00;5065863;28;20186;-58
2023/06/07 04:14:10;;;;;;;1999.90;999.90;;;;;;;15.06;100.00;95321.06;5065543;28;20260;-58
2023/06/07 04:16:35;;;;;;;1999.90;999.90;;;;;;;15.37;100.00;95329.69;5049260;28;20177;-57
2023/06/07 04:19:01;;;;;;;1999.90;999.90;;;;;;;15.48;100.00;95339.19;5066124;28;20213;-57
2023/06/07 04:21:26;;;;;;;1999.90;999.90;;;;;;;15.58;100.00;95345.59;5065536;28;20272;-57
2023/06/07 04:23:52;;;;;;;1999.90;999.90;;;;;;;15.43;100.00;95350.72;5065636;28;20197;-57
2023/06/07 04:26:21;;;;;;;1999.90;999.90;;;;;;;15.73;100.00;95344.75;5048482;28;20190;-57
2023/06/07 04:28:47;;;;;;;1999.90;999.90;;;;;;;16.13;100.00;95348.69;5048648;28;20189;-56
2023/06/07 04:31:13;;;;;;;1999.90;999.90;;;;;;;16.29;100.00;95351.31;5048901;28;20212;-56
2023/06/07 04:33:39;;;;;;;1999.90;999.90;;;;;;;16.43;100.00;95359.19;5065219;28;20209;-57
2023/06/07 04:36:04;;;;;;;1999.90;999.90;;;;;;;16.88;100.00;95358.16;5065133;28;20193;-57
2023/06/07 04:38:30;;;;;;;1999.90;999.90;;;;;;;17.10;100.00;95372.78;5065239;28;20189;-57
2023/06/07 04:40:55;;;;;;;1999.90;999.90;;;;;;;17.38;100.00;95363.53;5065275;28;20185;-57
2023/06/07 04:43:23;;;;;;;1999.90;999.90;;;;;;;17.86;100.00;95371.28;5048775;28;20193;-57
2023/06/07 04:45:54;;;;;;;1999.90;999.90;;;;;;;18.14;100.00;95359.19;5048227;28;20197;-58
2023/06/07 04:48:24;;;;;;;1999.90;999.90;;;;;;;18.54;100.00;95379.38;5065583;28;20193;-58
2023/06/07 04:50:51;;;;;;;1999.90;999.90;;;;;;;18.63;100.00;95376.66;5065395;28;20195;-58
2023/06/07 04:53:19;;;;;;;1999.90;999.90;;;;;;;18.88;100.00;95385.50;5065239;28;20210;-57
2023/06/07 04:55:47;;;;;;;1999.90;999.90;;;;;;;19.35;100.00;95368.56;5048909;28;20186;-57
2023/06/07 04:58:16;;;;;;;1999.90;999.90;;;;;;;19.67;100.00;95373.50;5048386;28;20278;-59
2023/06/07 05:00:41;;;;;;;1999.90;999.90;;;;;;;19.74;100.00;95373.16;5064611;28;20190;-58
2023/06/07 05:03:08;;;;;;;1999.90;999.90;;;;;;;19.89;100.00;95376.88;5048214;28;20198;-57
2023/06/07 05:05:37;;;;;;;1999.90;999.90;;;;;;;20.15;100.00;95378.09;5064876;28;20273;-58
2023/06/07 05:08:02;;;;;;;1999.90;999.90;;;;;;;20.49;100.00;95377.69;5047425;28;20194;-58
2023/06/07 05:10:28;;;;;;;1999.90;999.90;;;;;;;20.88;100.00;95376.59;5064659;28;20271;-58
2023/06/07 05:12:53;;;;;;;1999.90;999.90;;;;;;;21.01;100.00;95384.75;5047848;28;20200;-58
2023/06/07 05:15:21;;;;;;;1999.90;999.90;;;;;;;21.16;100.00;95386.34;5048411;28;20194;-58
2023/06/07 05:17:48;;;;;;;1999.90;999.90;;;;;;;21.00;100.00;95383.97;5064926;28;20189;-57
2023/06/07 05:20:14;;;;;;;1999.90;999.90;;;;;;;21.51;100.00;95384.56;5048135;28;20189;-57
2023/06/07 05:22:39;;;;;;;1999.90;999.90;;;;;;;21.78;100.00;95386.41;5064407;28;20209;-56
2023/06/07 05:25:06;;;;;;;1999.90;999.90;;;;;;;22.04;100.00;95385.38;5064658;28;20198;-56
2023/06/07 05:27:32;;;;;;;1999.90;999.90;;;;;;;22.32;100.00;95392.25;5064648;28;20190;-57
2023/06/07 05:29:57;;;;;;;1999.90;999.90;;;;;;;22.43;100.00;95389.66;5064399;28;20228;-57
2023/06/07 05:32:23;;;;;;;1999.90;999.90;;;;;;;22.59;100.00;95393.22;5047653;28;20186;-56
2023/06/07 05:34:49;;;;;;;1999.90;999.90;;;;;;;23.03;100.00;95389.13;5064039;28;20193;-55
2023/06/07 05:37:14;;;;;;;1999.90;999.90;;;;;;;22.81;100.00;95383.22;5048050;28;20192;-56
2023/06/07 05:39:41;;;;;;;1999.90;999.90;;;;;;;23.41;100.00;95390.97;5064231;28;20201;-57
2023/06/07 05:42:07;;;;;;;1999.90;999.90;;;;;;;23.50;100.00;95393.59;5047685;28;20224;-55
2023/06/07 05:44:32;;;;;;;1999.90;999.90;;;;;;;23.66;100.00;95395.84;5064399;28;20206;-57
2023/06/07 05:46:57;;;;;;;1999.90;999.90;;;;;;;24.04;100.00;95392.78;5064255;28;20190;-57
2023/06/07 05:49:23;;;;;;;1999.90;999.90;;;;;;;23.36;100.00;95394.44;5064232;28;20194;-57
2023/06/07 05:51:48;;;;;;;1999.90;999.90;;;;;;;24.00;100.00;95397.81;5064297;28;20220;-60
2023/06/07 05:54:13;;;;;;;1999.90;999.90;;;;;;;24.30;100.00;95404.72;5064088;28;20209;-58
2023/06/07 05:56:39;;;;;;;1999.90;999.90;;;;;;;24.02;100.00;95398.84;5047178;28;20208;-58
2023/06/07 05:59:04;;;;;;;1999.90;999.90;;;;;;;25.27;100.00;95391.31;5047159;28;20209;-58
2023/06/07 06:01:30;;;;;;;1999.90;999.90;;;;;;;25.57;100.00;95395.38;5063488;28;20189;-57
2023/06/07 06:03:56;;;;;;;1999.90;999.90;;;;;;;25.72;100.00;95395.94;5047049;28;20208;-57
2023/06/07 06:06:22;;;;;;;1999.90;999.90;;;;;;;25.84;100.00;95397.53;5047307;28;20193;-57
2023/06/07 06:08:47;;;;;;;1999.90;999.90;;;;;;;25.78;100.00;95402.31;5046989;28;20194;-57
2023/06/07 06:11:13;;;;;;;1999.90;999.90;;;;;;;26.65;100.00;95406.69;5047145;28;20197;-61
2023/06/07 06:13:40;;;;;;;1999.90;999.90;;;;;;;26.74;100.00;95403.66;5063343;28;20205;-59
2023/06/07 06:16:06;;;;;;;1999.90;999.90;;;;;;;26.55;100.00;95396.97;5064007;28;20239;-58
2023/06/07 06:18:32;;;;;;;1999.90;999.90;;;;;;;27.03;100.00;95391.94;5063851;28;20185;-58
2023/06/07 06:21:00;;;;;;;1999.90;999.90;;;;;;;26.85;100.00;95392.47;5063882;28;20193;-59
2023/06/07 06:23:25;;;;;;;1999.90;999.90;;;;;;;27.28;100.00;95390.16;5046772;28;20268;-58
2023/06/07 06:25:51;;;;;;;1999.90;999.90;;;;;;;27.40;96.46;95400.06;5047569;28;20200;-59
2023/06/07 06:28:17;;;;;;;1999.90;999.90;;;;;;;27.71;93.92;95400.50;5063430;28;20213;-58
2023/06/07 06:30:43;;;;;;;1999.90;999.90;;;;;;;27.41;96.77;95399.56;5063565;28;20239;-58
2023/06/07 06:33:09;;;;;;;1999.90;999.90;;;;;;;27.36;98.61;95408.75;5063240;28;20205;-58
2023/06/07 06:35:35;;;;;;;1999.90;999.90;;;;;;;27.59;98.66;95404.63;5046874;28;20300;-58
2023/06/07 06:38:01;;;;;;;1999.90;999.90;;;;;;;27.81;92.75;95404.56;5063414;28;20186;-58
2023/06/07 06:40:26;;;;;;;1999.90;999.90;;;;;;;27.63;96.64;95410.75;5063272;28;20224;-58
2023/06/07 06:42:52;;;;;;;1999.90;999.90;;;;;;;27.92;92.68;95409.38;5046519;28;20264;-60
2023/06/07 06:45:17;;;;;;;1999.90;999.90;;;;;;;29.06;85.96;95408.50;5063770;28;20249;-59
2023/06/07 06:47:43;;;;;;;1999.90;999.90;;;;;;;28.56;87.24;95410.88;5063704;28;20186;-59
2023/06/07 06:50:10;;;;;;;1999.90;999.90;;;;;;;29.15;84.01;95399.72;5063585;28;20507;-59
2023/06/07 06:52:35;;;;;;;1999.90;999.90;;;;;;;29.28;82.08;95403.44;5063611;28;20197;-59
2023/06/07 06:55:01;;;;;;;1999.90;999.90;;;;;;;29.09;83.02;95404.66;5063223;28;20194;-59
2023/06/07 06:57:26;;;;;;;1999.90;999.90;;;;;;;29.77;79.23;95401.44;5047019;28;20217;-59
2023/06/07 06:59:52;;;;;;;1999.90;999.90;;;;;;;30.77;72.64;95398.91;5046689;28;20217;-59
2023/06/07 07:02:17;;;;;;;1999.90;999.90;;;;;;;29.45;80.22;95395.59;5046578;28;20202;-59
2023/06/07 07:04:42;;;;;;;1999.90;999.90;;;;;;;29.50;79.94;95399.66;5063247;28;20248;-59
2023/06/07 07:07:08;;;;;;;1999.90;999.90;;;;;;;28.89;82.59;95396.59;5063213;28;20186;-59
2023/06/07 07:09:33;;;;;;;1999.90;999.90;;;;;;;29.30;83.87;95400.09;5063295;28;20192;-59
2023/06/07 07:11:59;;;;;;;1999.90;999.90;;;;;;;29.88;78.61;95395.69;5046329;28;20237;-63
2023/06/07 07:14:24;;;;;;;1999.90;999.90;;;;;;;30.76;74.06;95397.38;5063053;28;20243;-60
2023/06/07 07:16:49;;;;;;;1999.90;999.90;;;;;;;30.80;69.75;95409.09;5063221;28;20257;-60
2023/06/07 07:19:15;;;;;;;1999.90;999.90;;;;;;;30.62;72.36;95407.03;5062689;28;20190;-59
2023/06/07 07:21:43;;;;;;;1999.90;999.90;;;;;;;30.60;71.46;95412.47;5046546;28;20204;-51
2023/06/07 07:24:08;;;;;;;1999.90;999.90;;;;;;;31.30;70.83;95414.75;5062762;28;20200;-54
2023/06/07 07:26:34;;;;;;;1999.90;999.90;;;;;;;31.70;67.40;95398.59;5046545;28;20190;-53
2023/06/07 07:28:59;;;;;;;1999.90;999.90;;;;;;;31.81;63.85;95404.06;5062875;28;20190;-52
2023/06/07 07:31:24;;;;;;;1999.90;999.90;;;;;;;30.59;69.28;95406.03;5064874;28;20193;-52
2023/06/07 07:33:50;;;;;;;1999.90;999.90;;;;;;;30.69;71.00;95409.22;5066603;28;20211;-53
2023/06/07 07:36:17;;;;;;;1999.90;999.90;;;;;;;32.30;65.36;95411.56;5050035;28;20198;-54
2023/06/07 07:38:45;;;;;;;1999.90;999.90;;;;;;;33.59;58.03;95409.63;5050301;28;20190;-51
2023/06/07 07:41:11;;;;;;;1999.90;999.90;;;;;;;34.34;51.95;95415.03;5066625;28;20193;-55
2023/06/07 07:43:36;;;;;;;1999.90;999.90;;;;;;;32.26;58.36;95422.44;5050073;28;20200;-53
2023/06/07 07:46:02;;;;;;;1999.90;999.90;;;;;;;30.79;67.49;95411.19;5066603;28;20170;-54
2023/06/07 07:48:27;;;;;;;1999.90;999.90;;;;;;;31.12;67.06;95412.69;5066459;28;20197;-53
2023/06/07 07:50:52;;;;;;;1999.90;999.90;;;;;;;32.21;61.60;95408.41;5066495;28;20271;-54
2023/06/07 07:53:18;;;;;;;1999.90;999.90;;;;;;;32.75;58.24;95403.66;5066359;28;20216;-49
2023/06/07 07:55:43;;;;;;;1999.90;999.90;;;;;;;32.94;56.95;95395.00;5066083;28;20197;-54
2023/06/07 07:58:08;;;;;;;1999.90;999.90;;;;;;;33.01;54.54;95406.41;5066025;28;20208;-55
2023/06/07 08:00:34;;;;;;;1999.90;999.90;;;;;;;33.09;55.26;95400.81;5065856;28;20197;-53
2023/06/07 08:02:59;;;;;;;1999.90;999.90;;;;;;;33.64;52.62;95399.44;5065915;28;20251;-53
2023/06/07 08:05:25;;;;;;;1999.90;999.90;;;;;;;33.53;51.15;95405.38;5049397;28;20182;-52
2023/06/07 08:07:50;;;;;;;1999.90;999.90;;;;;;;32.83;52.39;95401.69;5065808;28;20229;-56
2023/06/07 08:10:16;;;;;;;1999.90;999.90;;;;;;;32.08;55.23;95395.03;5065898;28;20190;-50
2023/06/07 08:12:41;;;;;;;1999.90;999.90;;;;;;;32.68;55.25;95395.84;5065937;28;20193;-50
2023/06/07 08:15:08;;;;;;;1999.90;999.90;;;;;;;32.14;55.71;95398.53;5065647;28;20186;-53
2023/06/07 08:17:34;;;;;;;1999.90;999.90;;;;;;;31.20;61.44;95395.91;5065947;28;20173;-50
2023/06/07 08:20:00;;;;;;;1999.90;999.90;;;;;;;30.99;62.09;95392.91;5066267;28;20223;-49
2023/06/07 08:22:25;;;;;;;1999.90;999.90;;;;;;;31.71;58.61;95391.66;5049457;28;20261;-47
2023/06/07 08:24:51;;;;;;;1999.90;999.90;;;;;;;30.45;62.67;95398.06;5066082;28;20200;-49
2023/06/07 08:27:16;;;;;;;1999.90;999.90;;;;;;;29.34;68.76;95394.94;5065552;28;20261;-51
2023/06/07 08:29:41;;;;;;;1999.90;999.90;;;;;;;28.63;71.64;95393.47;5065526;28;20190;-50
2023/06/07 08:32:07;;;;;;;1999.90;999.90;;;;;;;28.29;75.08;95388.03;5065878;28;20247;-49
2023/06/07 08:34:33;;;;;;;1999.90;999.90;;;;;;;27.54;77.67;95391.34;5065240;28;20206;-49
2023/06/07 08:36:58;;;;;;;1999.90;999.90;;;;;;;26.96;80.53;95391.69;5024670;28;20214;-47
2023/06/07 08:39:23;;;;;;;1999.90;999.90;;;;;;;26.43;84.37;95392.63;5024918;28;20245;-49
2023/06/07 08:41:49;;;;;;;1999.90;999.90;;;;;;;25.78;88.81;95388.31;5024393;28;20207;-49
2023/06/07 08:44:15;;;;;;;1999.90;999.90;;;;;;;25.38;96.05;95388.63;5024313;28;20195;-48
2023/06/07 08:46:42;;;;;;;1999.90;999.90;;;;;;;24.93;100.00;95395.16;5024510;28;20211;-58
2023/06/07 08:49:10;;;;;;;1999.90;999.90;;;;;;;24.25;100.00;95394.25;5024764;28;20214;-58
2023/06/07 08:51:36;;;;;;;1999.90;999.90;;;;;;;24.47;100.00;95391.72;5024965;28;20207;-59
2023/06/07 08:54:03;;;;;;;1999.90;999.90;;;;;;;24.42;100.00;95389.63;5024439;28;20222;-58
2023/06/07 08:56:31;;;;;;;1999.90;999.90;;;;;;;24.97;100.00;95390.09;5024321;28;20207;-58
2023/06/07 08:58:57;;;;;;;1999.90;999.90;;;;;;;26.46;89.62;95388.81;5024350;28;20254;-59
2023/06/07 09:01:23;;;;;;;1999.90;999.90;;;;;;;27.34;82.14;95400.09;5024203;28;20271;-59
2023/06/07 09:03:52;;;;;;;1999.90;999.90;;;;;;;28.88;74.57;95395.06;5024633;28;20245;-59
2023/06/07 09:06:18;;;;;;;1999.90;999.90;;;;;;;29.27;68.00;95389.88;5024609;28;20207;-59
2023/06/07 09:08:44;;;;;;;1999.90;999.90;;;;;;;30.26;62.33;95394.47;5044867;28;20202;-59
2023/06/07 09:11:09;;;;;;;1999.90;999.90;;;;;;;30.39;60.92;95391.72;5064737;28;20198;-59
2023/06/07 09:13:36;;;;;;;1999.90;999.90;;;;;;;31.08;54.95;95389.66;5048025;28;20216;-59
2023/06/07 09:16:01;;;;;;;1999.90;999.90;;;;;;;31.34;54.00;95394.63;5065066;28;20208;-59
2023/06/07 09:18:50;;;;;;;1999.90;999.90;;;;;;;31.58;51.16;95394.47;5064969;28;20189;-59
2023/06/07 09:21:22;;;;;;;1999.90;999.90;;;;;;;31.46;48.35;95396.72;5048303;28;20194;-59
2023/06/07 09:23:51;;;;;;;1999.90;999.90;;;;;;;31.74;46.48;95382.09;5047751;28;20293;-59
2023/06/07 09:26:18;;;;;;;1999.90;999.90;;;;;;;32.37;45.47;95393.94;5064330;28;20257;-60
2023/06/07 09:28:47;;;;;;;1999.90;999.90;;;;;;;30.34;50.14;95398.94;5064637;28;20253;-59
2023/06/07 09:31:13;;;;;;;1999.90;999.90;;;;;;;31.17;50.47;95394.91;5064455;28;20189;-59
2023/06/07 09:33:39;;;;;;;1999.90;999.90;;;;;;;30.11;52.38;95394.09;5064208;28;20213;-59
2023/06/07 09:36:06;;;;;;;1999.90;999.90;;;;;;;30.99;51.17;95392.91;5047690;28;20203;-58
2023/06/07 09:38:33;;;;;;;1999.90;999.90;;;;;;;31.38;50.86;95395.09;5047631;28;20188;-58
2023/06/07 09:40:59;;;;;;;1999.90;999.90;;;;;;;31.16;49.19;95393.38;5047865;28;20311;-59
2023/06/07 09:43:25;;;;;;;1999.90;999.90;;;;;;;31.97;49.79;95395.28;5064553;28;20209;-59
2023/06/07 09:45:55;;;;;;;1999.90;999.90;;;;;;;31.25;50.25;95387.38;5064515;28;20197;-59
2023/06/07 09:48:21;;;;;;;1999.90;999.90;;;;;;;30.59;53.83;95388.38;5064060;28;20194;-59
2023/06/07 09:50:59;;;;;;;1999.90;999.90;;;;;;;28.37;65.14;95393.88;5063931;28;20200;-58
2023/06/07 09:53:27;;;;;;;1999.90;999.90;;;;;;;27.49;71.65;95389.34;5063592;28;20241;-58
2023/06/07 09:55:52;;;;;;;1999.90;999.90;;;;;;;25.75;86.80;95392.16;5063916;28;20256;-59
2023/06/07 09:58:22;;;;;;;1999.90;999.90;;;;;;;25.94;85.53;95382.03;5047622;28;20279;-59
2023/06/07 10:00:48;;;;;;;1999.90;999.90;;;;;;;25.68;88.78;95375.06;5063678;28;20248;-62
2023/06/07 10:03:14;;;;;;;1999.90;999.90;;;;;;;26.21;84.93;95386.97;5063790;28;20221;-58
2023/06/07 10:05:41;;;;;;;1999.90;999.90;;;;;;;27.45;73.64;95380.41;5064093;28;20272;-59
2023/06/07 10:08:07;;;;;;;1999.90;999.90;;;;;;;28.15;67.67;95380.69;5064041;28;20251;-59
2023/06/07 10:10:34;;;;;;;1999.90;999.90;;;;;;;29.52;60.61;95372.50;5047369;28;20197;-59
2023/06/07 10:13:04;;;;;;;1999.90;999.90;;;;;;;30.80;53.42;95369.59;5063349;28;20213;-59
2023/06/07 10:15:30;;;;;;;1999.90;999.90;;;;;;;30.38;51.26;95374.03;5064283;28;20268;-58
2023/06/07 10:18:19;;;;;;;1999.90;999.90;;;;;;;29.43;52.71;95370.03;5063509;28;20225;-58
2023/06/07 10:20:53;;;;;;;1999.90;999.90;;;;;;;29.86;46.17;95379.31;5046987;28;20276;-58
2023/06/07 10:23:28;;;;;;;1999.90;999.90;;;;;;;30.94;45.35;95368.34;5064003;28;20239;-59
2023/06/07 10:26:06;;;;;;;1999.90;999.90;;;;;;;31.42;43.25;95364.47;5063938;28;20205;-59
2023/06/07 10:28:40;;;;;;;1999.90;999.90;;;;;;;31.96;42.08;95371.16;5063577;28;20389;-58
2023/06/07 10:31:11;;;;;;;1999.90;999.90;;;;;;;32.70;41.27;95370.56;5063814;28;20272;-58
2023/06/07 10:33:37;;;;;;;1999.90;999.90;;;;;;;33.48;41.71;95370.22;5063760;28;20198;-58
2023/06/07 10:36:05;;;;;;;1999.90;999.90;;;;;;;30.79;49.32;95368.06;5047163;28;20193;-58
2023/06/07 10:38:32;;;;;;;1999.90;999.90;;;;;;;30.41;55.41;95355.31;5064048;28;20189;-59
2023/06/07 10:40:59;;;;;;;1999.90;999.90;;;;;;;29.32;58.38;95364.50;5063823;28;20196;-58
2023/06/07 10:43:29;;;;;;;1999.90;999.90;;;;;;;28.85;59.18;95368.75;5063514;28;20198;-58
2023/06/07 10:46:21;;;;;;;1999.90;999.90;;;;;;;28.08;63.08;95372.81;5063380;28;20200;-59
2023/06/07 10:48:47;;;;;;;1999.90;999.90;;;;;;;27.26;67.67;95367.44;5046605;28;20198;-58